Winterville, Mississippi
Current Conditions -  °F | °C
As of 10:53 AM on Friday 24 Oct 2014 (Local Time) from KGLH Reporting Station
Clear Clear  
Wind Chill: 64°   Ceiling: Unl
Heat Index: 64°   Visibility: 10mi
Dew Point: 47°   Wind: 3mph
Humidity: 54%   Direction: 10°N
Pressure: 30.16"   Gusts: NA
Location:  33.5°N, 91.06°W
Report Text: KGLH 241553Z AUTO 01003KT 10SM CLR 18/08 A3016 RMK AO2 SLP221 T01780083
Loading
Personal Weather Stations






























Interactive Weather Map
Tropical Storm Tracking
New forecast layout! Learn more

10-Day Weather Forecast

Advertisements
Track Severe Weather on mobile